createdAt,value
2022-08-26T00:00:35.305Z,5.15
2022-08-26T00:05:42.263Z,4.60
2022-08-26T00:08:15.953Z,5.00
2022-08-26T00:10:48.413Z,5.50
2022-08-26T00:13:20.972Z,5.63
2022-08-26T00:15:53.571Z,5.82
2022-08-26T00:18:27.355Z,5.90
2022-08-26T00:21:06.189Z,5.60
2022-08-26T00:23:38.862Z,5.90
2022-08-26T00:26:11.011Z,6.15
2022-08-26T00:28:43.101Z,6.47
2022-08-26T00:31:14.989Z,5.70
2022-08-26T00:33:48.178Z,5.80
2022-08-26T00:36:21.705Z,5.93
2022-08-26T00:38:53.581Z,5.80
2022-08-26T00:41:25.757Z,5.88
2022-08-26T00:43:57.643Z,5.63
2022-08-26T00:46:35.173Z,5.95
2022-08-26T00:49:14.046Z,5.78
2022-08-26T00:51:50.769Z,5.75
2022-08-26T00:54:27.012Z,5.95
2022-08-26T00:57:02.460Z,5.85
2022-08-26T00:59:36.286Z,5.80
2022-08-26T01:02:20.764Z,5.43
2022-08-26T01:04:58.844Z,5.60
2022-08-26T01:07:33.298Z,5.75
2022-08-26T01:10:10.732Z,6.00
2022-08-26T01:12:47.557Z,6.28
2022-08-26T01:15:23.986Z,6.07
2022-08-26T01:17:55.893Z,6.47
2022-08-26T01:20:36.266Z,6.30
2022-08-26T01:23:10.846Z,6.88
2022-08-26T01:25:46.079Z,6.70
2022-08-26T01:28:21.751Z,6.90
2022-08-26T01:30:54.892Z,7.05
2022-08-26T01:33:42.077Z,7.70
2022-08-26T01:36:15.192Z,7.25
2022-08-26T01:41:27.178Z,6.68
2022-08-26T01:44:03.199Z,6.95
2022-08-26T01:46:35.824Z,6.55
2022-08-26T01:49:08.637Z,7.40
2022-08-26T01:51:44.355Z,6.90
2022-08-26T01:54:17.938Z,6.70
2022-08-26T01:56:53.771Z,7.18
2022-08-26T01:59:25.972Z,7.20
2022-08-26T02:01:58.107Z,6.78
2022-08-26T02:04:33.619Z,6.70
2022-08-26T02:07:08.749Z,6.68
2022-08-26T02:09:42.811Z,6.70
2022-08-26T02:12:17.074Z,6.40
2022-08-26T02:14:53.274Z,7.10
2022-08-26T02:17:29.336Z,6.95
2022-08-26T02:20:03.372Z,6.70
2022-08-26T02:22:35.920Z,6.85
2022-08-26T02:25:14.028Z,6.88
2022-08-26T02:27:48.315Z,6.88
2022-08-26T02:30:23.066Z,7.03
2022-08-26T02:32:58.308Z,7.40
2022-08-26T02:35:31.139Z,8.60
2022-08-26T02:40:45.884Z,7.75
2022-08-26T02:43:31.198Z,7.53
2022-08-26T02:46:03.100Z,8.20
2022-08-26T02:48:34.938Z,7.75
2022-08-26T02:51:07.749Z,7.95
2022-08-26T02:53:39.550Z,7.72
2022-08-26T02:56:12.665Z,7.90
2022-08-26T02:58:44.540Z,8.30
2022-08-26T03:01:22.057Z,7.90
2022-08-26T03:03:54.250Z,7.97
2022-08-26T03:06:26.266Z,8.27
2022-08-26T03:08:58.294Z,7.78
2022-08-26T03:11:33.138Z,8.27
2022-08-26T03:14:05.664Z,8.23
2022-08-26T03:16:37.979Z,8.50
2022-08-26T03:19:11.380Z,8.23
2022-08-26T03:24:17.533Z,7.43
2022-08-26T03:26:52.698Z,8.15
2022-08-26T03:29:43.506Z,7.95
2022-08-26T03:32:16.825Z,7.15
2022-08-26T03:37:21.520Z,6.70
2022-08-26T03:39:53.531Z,7.13
2022-08-26T03:42:27.285Z,7.00
2022-08-26T03:44:59.291Z,6.75
2022-08-26T03:47:31.855Z,7.03
2022-08-26T03:50:05.382Z,7.88
2022-08-26T03:52:39.707Z,7.40
2022-08-26T03:55:16.468Z,7.35
2022-08-26T03:57:50.821Z,7.75
2022-08-26T04:00:23.071Z,7.72
2022-08-26T04:02:56.276Z,8.20
2022-08-26T04:05:28.358Z,7.47
2022-08-26T04:08:00.292Z,8.27
2022-08-26T04:10:32.330Z,8.88
2022-08-26T04:13:05.523Z,8.40
2022-08-26T04:15:39.285Z,8.32
2022-08-26T04:18:11.143Z,8.15
2022-08-26T04:20:43.022Z,8.75
2022-08-26T04:23:16.746Z,8.77
2022-08-26T04:25:49.149Z,9.20
2022-08-26T04:28:22.940Z,9.10
2022-08-26T04:33:32.540Z,8.05
2022-08-26T04:36:05.884Z,8.60
2022-08-26T04:38:38.929Z,9.00
2022-08-26T04:41:15.263Z,8.88
2022-08-26T04:43:50.341Z,9.48
2022-08-26T04:46:24.454Z,9.20
2022-08-26T04:51:28.345Z,9.10
2022-08-26T04:54:00.191Z,9.00
2022-08-26T04:56:37.209Z,8.77
2022-08-26T04:59:16.576Z,9.27
2022-08-26T05:01:52.113Z,8.18
2022-08-26T05:04:24.017Z,9.05
2022-08-26T05:07:02.284Z,9.50
2022-08-26T05:09:34.840Z,8.75
2022-08-26T05:12:07.304Z,9.10
2022-08-26T05:14:41.529Z,8.20
2022-08-26T05:17:15.175Z,8.23
2022-08-26T05:19:47.291Z,8.50
2022-08-26T05:22:20.111Z,8.73
2022-08-26T05:24:52.253Z,8.80
2022-08-26T05:27:24.392Z,10.15
2022-08-26T05:29:58.207Z,8.32
2022-08-26T05:32:29.999Z,8.52
2022-08-26T05:35:01.992Z,8.40
2022-08-26T05:37:34.599Z,8.52
2022-08-26T05:40:08.154Z,8.63
2022-08-26T05:42:40.278Z,8.55
2022-08-26T05:45:13.766Z,9.40
2022-08-26T05:47:46.026Z,8.88
2022-08-26T05:50:23.237Z,9.23
2022-08-26T05:52:55.561Z,9.35
2022-08-26T05:55:27.453Z,10.02
2022-08-26T05:57:59.473Z,9.82
2022-08-26T06:00:35.970Z,10.48
2022-08-26T06:03:11.413Z,10.07
2022-08-26T06:05:43.296Z,10.63
2022-08-26T06:08:19.158Z,9.82
2022-08-26T06:10:54.041Z,10.27
2022-08-26T06:13:27.338Z,10.70
2022-08-26T06:16:07.524Z,9.18
2022-08-26T06:18:43.514Z,10.82
2022-08-26T06:21:17.349Z,11.02
2022-08-26T06:24:09.631Z,10.50
2022-08-26T06:26:46.860Z,9.57
2022-08-26T06:29:25.764Z,10.07
2022-08-26T06:32:01.179Z,10.45
2022-08-26T06:34:33.808Z,11.15
2022-08-26T06:37:06.645Z,10.88
2022-08-26T06:39:40.091Z,11.15
2022-08-26T06:42:12.079Z,9.20
2022-08-26T06:44:44.697Z,9.63
2022-08-26T06:47:18.005Z,10.77
2022-08-26T06:49:50.362Z,9.35
2022-08-26T06:52:24.379Z,9.25
2022-08-26T06:54:56.514Z,9.55
2022-08-26T06:57:28.613Z,10.00
2022-08-26T07:00:06.347Z,9.68
2022-08-26T07:02:39.690Z,8.27
2022-08-26T07:05:11.546Z,8.50
2022-08-26T07:07:43.405Z,9.90
2022-08-26T07:10:15.680Z,10.07
2022-08-26T07:12:48.975Z,9.77
2022-08-26T07:18:00.355Z,8.27
2022-08-26T07:20:32.131Z,9.23
2022-08-26T07:23:04.065Z,9.93
2022-08-26T07:25:38.735Z,9.87
2022-08-26T07:28:10.824Z,9.63
2022-08-26T07:30:42.684Z,9.10
2022-08-26T07:33:17.705Z,9.75
2022-08-26T07:35:49.592Z,9.85
2022-08-26T07:38:21.416Z,9.40
2022-08-26T07:40:53.207Z,9.10
2022-08-26T07:43:25.168Z,10.20
2022-08-26T07:45:57.729Z,9.73
2022-08-26T07:48:31.255Z,9.20
2022-08-26T07:51:06.216Z,8.90
2022-08-26T07:53:39.787Z,8.90
2022-08-26T07:56:11.631Z,8.77
2022-08-26T07:58:45.728Z,10.48
2022-08-26T08:01:20.353Z,8.95
2022-08-26T08:03:54.232Z,8.93
2022-08-26T08:06:27.511Z,10.05
2022-08-26T08:09:00.916Z,9.18
2022-08-26T08:11:33.549Z,8.98
2022-08-26T08:14:08.242Z,9.18
2022-08-26T08:16:46.050Z,8.68
2022-08-26T08:19:20.046Z,8.65
2022-08-26T08:21:53.622Z,8.90
2022-08-26T08:24:26.644Z,8.40
2022-08-26T08:26:58.946Z,9.43
2022-08-26T08:29:31.254Z,9.38
2022-08-26T08:32:04.965Z,9.65
2022-08-26T08:34:38.270Z,8.30
2022-08-26T08:39:42.814Z,9.27
2022-08-26T08:42:39.011Z,9.05
2022-08-26T08:45:13.811Z,7.85
2022-08-26T08:47:50.338Z,7.95
2022-08-26T08:50:30.426Z,8.32
2022-08-26T08:53:10.376Z,8.55
2022-08-26T08:55:56.497Z,7.90
2022-08-26T08:58:42.090Z,8.27
2022-08-26T09:01:24.582Z,7.93
2022-08-26T09:04:21.746Z,8.40
2022-08-26T09:09:38.325Z,7.88
2022-08-26T09:12:16.709Z,8.38
2022-08-26T09:14:56.669Z,8.40
2022-08-26T09:17:42.938Z,7.85
2022-08-26T09:20:34.855Z,7.60
2022-08-26T09:23:11.030Z,8.20
2022-08-26T09:25:48.960Z,8.02
2022-08-26T09:28:23.624Z,7.38
2022-08-26T09:31:07.945Z,8.18
2022-08-26T09:33:43.314Z,6.63
2022-08-26T09:36:22.591Z,7.15
2022-08-26T09:38:55.816Z,7.05
2022-08-26T09:41:32.469Z,6.75
2022-08-26T09:44:14.467Z,7.40
2022-08-26T09:46:55.194Z,7.43
2022-08-26T09:49:35.599Z,6.68
2022-08-26T09:52:15.726Z,6.47
2022-08-26T09:55:02.237Z,6.68
2022-08-26T09:57:36.569Z,6.28
2022-08-26T10:00:27.893Z,6.68
2022-08-26T10:03:01.774Z,6.75
2022-08-26T10:05:40.541Z,6.68
2022-08-26T10:08:25.854Z,6.78
2022-08-26T10:11:01.489Z,6.65
2022-08-26T10:13:36.357Z,7.47
2022-08-26T10:16:14.969Z,6.95
2022-08-26T10:18:56.775Z,6.78
2022-08-26T10:21:35.925Z,8.05
2022-08-26T10:24:11.455Z,7.25
2022-08-26T10:26:49.310Z,6.78
2022-08-26T10:29:26.043Z,6.93
2022-08-26T10:32:02.664Z,7.07
2022-08-26T10:34:35.666Z,6.50
2022-08-26T10:37:14.327Z,7.00
2022-08-26T10:39:56.997Z,6.57
2022-08-26T10:42:37.514Z,7.03
2022-08-26T10:45:15.016Z,6.53
2022-08-26T10:47:51.626Z,6.68
2022-08-26T10:50:27.336Z,6.88
2022-08-26T10:53:07.624Z,7.05
2022-08-26T10:55:48.167Z,6.78
2022-08-26T10:58:41.754Z,6.88
2022-08-26T11:01:40.665Z,6.90
2022-08-26T11:04:23.216Z,6.97
2022-08-26T11:07:31.859Z,7.20
2022-08-26T11:10:07.480Z,6.90
2022-08-26T11:12:54.850Z,7.15
2022-08-26T11:16:08.196Z,7.03
2022-08-26T11:18:46.799Z,6.80
2022-08-26T11:21:44.215Z,7.18
2022-08-26T11:24:45.091Z,7.55
2022-08-26T11:28:02.611Z,6.80
2022-08-26T11:30:42.640Z,7.32
2022-08-26T11:33:51.003Z,7.13
2022-08-26T11:36:43.222Z,6.85
2022-08-26T11:39:20.244Z,6.97
2022-08-26T11:41:55.463Z,6.43
2022-08-26T11:44:38.932Z,6.85
2022-08-26T11:47:15.062Z,6.55
2022-08-26T11:49:48.852Z,6.03
2022-08-26T11:52:22.623Z,6.45
2022-08-26T11:55:01.650Z,6.07
2022-08-26T11:57:35.522Z,5.93
2022-08-26T12:00:14.196Z,5.47
2022-08-26T12:02:46.229Z,4.88
2022-08-26T12:05:24.042Z,4.53
2022-08-26T12:08:06.265Z,4.55
2022-08-26T12:10:38.593Z,4.50
2022-08-26T12:13:21.182Z,6.00
2022-08-26T12:15:55.993Z,5.45
2022-08-26T12:18:31.692Z,6.07
2022-08-26T12:21:13.757Z,6.55
2022-08-26T12:23:50.062Z,5.65
2022-08-26T12:26:25.198Z,5.30
2022-08-26T12:28:59.161Z,3.97
2022-08-26T12:31:33.837Z,3.50
2022-08-26T12:34:17.678Z,3.13
2022-08-26T12:36:56.297Z,3.30
2022-08-26T12:39:38.238Z,3.72
2022-08-26T12:42:24.139Z,3.58
2022-08-26T12:45:00.547Z,3.78
2022-08-26T12:47:42.925Z,4.28
2022-08-26T12:52:58.738Z,4.88
2022-08-26T12:55:42.319Z,4.78
2022-08-26T12:58:26.561Z,4.90
2022-08-26T13:01:24.898Z,4.63
2022-08-26T13:03:56.760Z,4.78
2022-08-26T13:06:34.169Z,4.88
2022-08-26T13:09:31.314Z,4.63
2022-08-26T13:12:03.438Z,4.70
2022-08-26T13:14:35.307Z,4.32
2022-08-26T13:17:07.161Z,4.72
2022-08-26T13:19:38.962Z,4.63
2022-08-26T13:22:13.084Z,4.60
2022-08-26T13:24:46.397Z,4.68
2022-08-26T13:27:20.504Z,4.50
2022-08-26T13:29:52.947Z,4.57
2022-08-26T13:32:25.564Z,4.88
2022-08-26T13:34:59.716Z,4.82
2022-08-26T13:37:34.365Z,4.65
2022-08-26T13:40:10.070Z,4.85
2022-08-26T13:42:49.602Z,4.28
2022-08-26T13:50:25.015Z,4.93
2022-08-26T13:52:57.072Z,4.20
2022-08-26T13:55:30.293Z,4.10
2022-08-26T13:58:02.067Z,4.00
2022-08-26T14:00:34.052Z,4.32
2022-08-26T14:03:09.205Z,4.18
2022-08-26T14:05:44.502Z,3.90
2022-08-26T14:08:16.767Z,4.20
2022-08-26T14:10:50.313Z,4.38
2022-08-26T14:13:22.546Z,4.20
2022-08-26T14:23:32.611Z,4.60
2022-08-26T14:26:08.281Z,4.10
2022-08-26T14:28:40.386Z,4.63
2022-08-26T14:31:12.541Z,4.78
2022-08-26T14:33:44.579Z,4.18
2022-08-26T14:36:42.736Z,4.70
2022-08-26T14:39:14.715Z,4.90
2022-08-26T14:41:53.733Z,4.68
2022-08-26T14:44:33.377Z,4.35
2022-08-26T14:47:06.605Z,4.80
2022-08-26T14:49:38.427Z,4.18
2022-08-26T14:52:10.303Z,4.07
2022-08-26T14:54:42.102Z,4.82
2022-08-26T14:57:15.446Z,4.00
2022-08-26T14:59:50.489Z,4.63
2022-08-26T15:02:33.556Z,4.10
2022-08-26T15:05:08.458Z,4.38
2022-08-26T15:07:40.705Z,4.20
2022-08-26T15:12:47.524Z,4.30
2022-08-26T15:15:19.475Z,4.25
2022-08-26T15:17:51.330Z,4.10
2022-08-26T15:20:23.301Z,3.90
2022-08-26T15:22:55.147Z,3.92
2022-08-26T15:25:27.569Z,4.15
2022-08-26T15:28:00.759Z,4.43
2022-08-26T15:30:33.734Z,3.95
2022-08-26T15:33:05.549Z,3.90
2022-08-26T15:35:46.885Z,4.10
2022-08-26T15:38:18.673Z,3.95
2022-08-26T15:40:50.441Z,4.05
2022-08-26T15:43:29.017Z,4.40
2022-08-26T15:46:01.325Z,4.75
2022-08-26T15:48:33.271Z,4.97
2022-08-26T15:51:06.678Z,4.90
2022-08-26T15:53:38.467Z,5.38
2022-08-26T15:56:10.269Z,4.93
2022-08-26T15:58:43.712Z,5.05
2022-08-26T16:01:27.424Z,5.63
2022-08-26T16:04:00.552Z,5.15
2022-08-26T16:06:35.086Z,5.82
2022-08-26T16:09:07.949Z,6.20
2022-08-26T16:11:39.818Z,6.63
2022-08-26T16:14:12.921Z,4.70
2022-08-26T16:16:45.111Z,4.25
2022-08-26T16:19:17.137Z,4.15
2022-08-26T16:21:51.185Z,4.45
2022-08-26T16:24:27.169Z,4.50
2022-08-26T16:27:02.221Z,4.38
2022-08-26T16:29:38.093Z,4.30
2022-08-26T16:32:09.872Z,4.43
2022-08-26T16:34:56.131Z,4.22
2022-08-26T16:37:28.430Z,3.92
2022-08-26T16:40:00.621Z,4.05
2022-08-26T16:42:32.618Z,4.10
2022-08-26T16:45:06.795Z,3.95
2022-08-26T16:47:38.876Z,4.35
2022-08-26T16:50:12.789Z,4.50
2022-08-26T16:52:44.787Z,4.90
2022-08-26T16:55:17.037Z,5.18
2022-08-26T16:57:49.729Z,4.83
2022-08-26T17:00:27.700Z,5.28
2022-08-26T17:03:00.951Z,4.45
2022-08-26T17:05:32.992Z,4.43
2022-08-26T17:08:05.780Z,4.35
2022-08-26T17:10:37.719Z,4.50
2022-08-26T17:13:09.684Z,4.10
2022-08-26T17:15:45.283Z,4.13
2022-08-26T17:18:17.111Z,4.30
2022-08-26T17:20:49.385Z,3.95
2022-08-26T17:23:22.151Z,4.23
2022-08-26T17:25:53.914Z,4.53
2022-08-26T17:28:25.758Z,4.68
2022-08-26T17:30:59.275Z,4.45
2022-08-26T17:33:31.425Z,4.80
2022-08-26T17:36:04.180Z,4.80
2022-08-26T17:38:36.557Z,4.68
2022-08-26T17:41:09.708Z,5.83
2022-08-26T17:46:14.787Z,6.10
2022-08-26T17:48:48.257Z,6.60
2022-08-26T17:51:20.911Z,7.93
2022-08-26T17:53:52.845Z,8.05
2022-08-26T17:56:27.109Z,8.52
2022-08-26T17:59:02.515Z,8.50
2022-08-26T18:01:37.457Z,8.45
2022-08-26T18:04:10.092Z,9.27
2022-08-26T18:06:43.323Z,10.50
2022-08-26T18:11:46.730Z,7.82
2022-08-26T18:14:18.565Z,6.80
2022-08-26T18:16:51.733Z,6.57
2022-08-26T18:19:23.508Z,7.60
2022-08-26T18:21:55.552Z,7.45
2022-08-26T18:24:30.334Z,6.10
2022-08-26T18:27:02.201Z,6.15
2022-08-26T18:29:34.202Z,5.90
2022-08-26T18:32:08.560Z,5.53
2022-08-26T18:34:40.421Z,5.32
2022-08-26T18:39:50.693Z,5.82
2022-08-26T18:42:24.026Z,5.03
2022-08-26T18:47:30.025Z,5.55
2022-08-26T18:50:02.257Z,4.88
2022-08-26T18:52:34.085Z,5.97
2022-08-26T18:55:06.588Z,5.85
2022-08-26T18:57:38.421Z,5.30
2022-08-26T19:00:11.563Z,6.05
2022-08-26T19:02:52.149Z,5.70
2022-08-26T19:05:25.430Z,6.40
2022-08-26T19:07:57.317Z,5.60
2022-08-26T19:10:30.133Z,6.00
2022-08-26T19:13:06.100Z,6.18
2022-08-26T19:15:40.193Z,6.53
2022-08-26T19:18:14.729Z,7.25
2022-08-26T19:20:47.806Z,6.72
2022-08-26T19:23:31.339Z,6.93
2022-08-26T19:26:05.223Z,7.05
2022-08-26T19:28:40.705Z,6.68
2022-08-26T19:31:12.660Z,6.43
2022-08-26T19:33:45.910Z,6.75
2022-08-26T19:36:21.671Z,7.32
2022-08-26T19:38:54.376Z,6.78
2022-08-26T19:41:37.106Z,6.85
2022-08-26T19:44:12.976Z,6.70
2022-08-26T19:46:47.944Z,6.68
2022-08-26T19:49:21.068Z,7.07
2022-08-26T19:51:54.128Z,6.78
2022-08-26T19:54:27.107Z,6.60
2022-08-26T19:56:58.923Z,7.07
2022-08-26T19:59:32.956Z,6.40
2022-08-26T20:02:10.027Z,6.93
2022-08-26T20:04:44.658Z,7.50
2022-08-26T20:07:18.892Z,7.80
2022-08-26T20:09:51.263Z,7.85
2022-08-26T20:12:24.809Z,7.65
2022-08-26T20:14:56.642Z,9.07
2022-08-26T20:17:28.536Z,7.90
2022-08-26T20:20:28.503Z,8.90
2022-08-26T20:23:05.527Z,8.00
2022-08-26T20:25:37.621Z,7.65
2022-08-26T20:28:09.906Z,7.25
2022-08-26T20:30:41.850Z,7.43
2022-08-26T20:33:13.666Z,6.72
2022-08-26T20:35:47.001Z,8.52
2022-08-26T20:40:54.177Z,6.60
2022-08-26T20:43:28.261Z,7.55
2022-08-26T20:46:00.565Z,7.95
2022-08-26T20:48:32.419Z,7.93
2022-08-26T20:51:07.040Z,8.00
2022-08-26T20:53:38.984Z,8.63
2022-08-26T20:56:12.662Z,8.05
2022-08-26T20:58:44.454Z,8.50
2022-08-26T21:01:19.334Z,8.75
2022-08-26T21:03:52.357Z,8.63
2022-08-26T21:06:25.697Z,8.85
2022-08-26T21:08:58.391Z,8.73
2022-08-26T21:11:30.745Z,9.10
2022-08-26T21:14:06.893Z,9.20
2022-08-26T21:16:48.319Z,8.90
2022-08-26T21:19:20.204Z,9.93
2022-08-26T21:21:53.496Z,9.95
2022-08-26T21:26:56.930Z,9.35
2022-08-26T21:29:28.778Z,9.10
2022-08-26T21:32:00.637Z,10.32
2022-08-26T21:34:32.509Z,10.85
2022-08-26T21:37:08.954Z,11.25
2022-08-26T21:39:48.322Z,11.07
2022-08-26T21:42:20.442Z,11.30
2022-08-26T21:44:53.366Z,11.45
2022-08-26T21:47:25.720Z,10.98
2022-08-26T21:49:57.556Z,11.50
2022-08-26T21:52:30.790Z,11.88
2022-08-26T21:55:04.299Z,11.80
2022-08-26T21:57:40.952Z,12.57
2022-08-26T22:00:15.677Z,11.48
2022-08-26T22:02:50.105Z,10.40
2022-08-26T22:05:21.933Z,11.55
2022-08-26T22:07:55.287Z,11.68
2022-08-26T22:12:58.679Z,11.43
2022-08-26T22:15:32.962Z,12.60
2022-08-26T22:18:06.066Z,12.95
2022-08-26T22:20:37.867Z,13.13
2022-08-26T22:23:11.009Z,12.25
2022-08-26T22:25:42.771Z,12.00
2022-08-26T22:28:15.248Z,13.00
2022-08-26T22:30:47.382Z,11.80
2022-08-26T22:33:19.637Z,13.48
2022-08-26T22:35:52.815Z,13.18
2022-08-26T22:38:26.176Z,13.70
2022-08-26T22:43:31.947Z,12.30
2022-08-26T22:46:04.312Z,13.70
2022-08-26T22:48:37.960Z,12.07
2022-08-26T22:51:09.795Z,13.38
2022-08-26T22:53:45.173Z,12.90
2022-08-26T22:56:19.022Z,12.25
2022-08-26T22:58:50.888Z,11.93
2022-08-26T23:01:22.835Z,12.93
2022-08-26T23:03:54.705Z,11.30
2022-08-26T23:06:26.543Z,13.68
2022-08-26T23:08:59.690Z,11.80
2022-08-26T23:11:31.903Z,11.40
2022-08-26T23:14:05.089Z,11.60
2022-08-26T23:16:41.631Z,11.93
2022-08-26T23:19:15.430Z,12.77
2022-08-26T23:21:48.041Z,13.95
2022-08-26T23:24:21.351Z,14.02
2022-08-26T23:29:24.845Z,15.70
2022-08-26T23:31:56.712Z,17.30
2022-08-26T23:34:47.286Z,17.30
2022-08-26T23:37:20.378Z,18.45
2022-08-26T23:42:26.889Z,19.73
2022-08-26T23:45:01.617Z,19.08
2022-08-26T23:47:33.697Z,20.10
2022-08-26T23:50:07.057Z,20.75
2022-08-26T23:55:31.487Z,22.00
2022-08-26T23:58:03.954Z,24.52
